Time;durP1;ratioP1;P1;durP2;ratioP2;P2;SDS_P1;SDS_P2;PMS_P1;PMS_P2;Temp;Humidity;BMP_temperature;BMP_pressure;BME280_temperature;BME280_humidity;BME280_pressure;Samples;Min_cycle;Max_cycle;Signal;HPM_P1;HPM_P2
2021/03/01 00:01:46;;;;;;;36.08;21.40;;;5.70;96.60;;;;;;5062561;28;20519;-39
2021/03/01 00:04:12;;;;;;;32.72;20.70;;;5.70;96.60;;;;;;5063477;28;20178;-40
2021/03/01 00:06:38;;;;;;;37.55;22.35;;;5.70;96.60;;;;;;5065009;28;20028;-39
2021/03/01 00:09:03;;;;;;;35.40;21.00;;;5.70;96.70;;;;;;5064253;28;20040;-42
2021/03/01 00:11:32;;;;;;;38.20;21.30;;;5.70;97.10;;;;;;5064226;28;20021;-38
2021/03/01 00:13:58;;;;;;;35.83;20.58;;;5.70;96.90;;;;;;5064571;28;20403;-40
2021/03/01 00:16:23;;;;;;;37.78;21.00;;;5.70;96.80;;;;;;5064331;28;20033;-41
2021/03/01 00:18:49;;;;;;;33.92;21.42;;;5.70;96.80;;;;;;5063948;28;20892;-39
2021/03/01 00:21:14;;;;;;;42.88;23.73;;;5.70;96.90;;;;;;5064754;28;20086;-40
2021/03/01 00:23:40;;;;;;;41.20;23.80;;;5.70;96.80;;;;;;5064397;28;20081;-40
2021/03/01 00:26:05;;;;;;;40.30;23.92;;;5.70;96.80;;;;;;5063526;28;20055;-39
2021/03/01 00:28:31;;;;;;;35.75;22.75;;;5.70;96.90;;;;;;5064268;28;20561;-39
2021/03/01 00:30:56;;;;;;;49.33;25.63;;;5.70;96.90;;;;;;5064146;28;20029;-38
2021/03/01 00:33:22;;;;;;;37.05;22.15;;;5.80;96.90;;;;;;5063990;28;20657;-39
2021/03/01 00:35:47;;;;;;;40.58;23.65;;;5.80;96.90;;;;;;5064359;28;20017;-38
2021/03/01 00:38:13;;;;;;;39.70;23.70;;;5.80;96.90;;;;;;5063903;28;20714;-38
2021/03/01 00:40:38;;;;;;;46.83;24.25;;;5.80;96.90;;;;;;5064321;28;20112;-40
2021/03/01 00:43:04;;;;;;;45.40;24.65;;;5.80;96.90;;;;;;5063725;28;20016;-39
2021/03/01 00:45:29;;;;;;;49.05;25.17;;;5.90;96.90;;;;;;5063914;28;20115;-39
2021/03/01 00:47:55;;;;;;;43.35;23.42;;;5.80;96.80;;;;;;5064862;28;20444;-40
2021/03/01 00:50:20;;;;;;;46.83;24.30;;;5.90;96.80;;;;;;5063361;28;20507;-40
2021/03/01 00:52:46;;;;;;;41.28;24.08;;;5.90;96.90;;;;;;5063710;28;20074;-34
2021/03/01 00:55:11;;;;;;;42.55;24.50;;;5.80;96.80;;;;;;5063868;28;20101;-38
2021/03/01 00:57:40;;;;;;;36.22;22.25;;;5.90;96.80;;;;;;5063896;28;20028;-41
2021/03/01 01:00:11;;;;;;;43.40;23.77;;;5.90;96.80;;;;;;5063434;28;20021;-40
2021/03/01 01:02:37;;;;;;;45.78;24.65;;;5.90;96.80;;;;;;5064238;28;20104;-40
2021/03/01 01:15:10;;;;;;;48.75;27.42;;;6.00;96.60;;;;;;5062668;28;20086;-40
2021/03/01 01:17:36;;;;;;;49.83;27.42;;;5.90;96.60;;;;;;5067296;28;20480;-39
2021/03/01 01:20:10;;;;;;;52.95;28.15;;;6.00;96.90;;;;;;5066831;28;20391;-39
2021/03/01 01:22:35;;;;;;;43.40;25.83;;;6.00;96.60;;;;;;5066616;28;20392;-39
2021/03/01 01:25:01;;;;;;;57.90;28.60;;;5.90;96.60;;;;;;5067121;28;20035;-41
2021/03/01 01:27:27;;;;;;;44.33;25.27;;;5.90;96.60;;;;;;5066531;28;20017;-42
2021/03/01 01:29:52;;;;;;;44.22;25.40;;;5.90;96.60;;;;;;5066915;28;20037;-40
2021/03/01 01:32:18;;;;;;;47.13;25.90;;;5.90;96.70;;;;;;5066548;28;20054;-39
2021/03/01 01:34:43;;;;;;;48.78;26.67;;;5.90;96.70;;;;;;5066207;28;20479;-38
2021/03/01 01:37:09;;;;;;;56.00;28.88;;;5.90;96.60;;;;;;5066876;28;20111;-39
2021/03/01 01:39:37;;;;;;;57.10;29.40;;;5.90;96.60;;;;;;5067032;28;20028;-38
2021/03/01 01:42:05;;;;;;;55.60;30.67;;;5.90;96.60;;;;;;5066174;28;20020;-40
2021/03/01 01:44:34;;;;;;;52.25;27.65;;;5.90;96.60;;;;;;5067006;28;20047;-39
2021/03/01 01:47:05;;;;;;;51.55;27.40;;;5.90;96.70;;;;;;5066408;28;20013;-39
2021/03/01 01:49:30;;;;;;;53.38;28.73;;;5.90;96.70;;;;;;5065690;28;20079;-41
2021/03/01 01:51:56;;;;;;;51.83;28.60;;;5.90;96.70;;;;;;5066135;28;20025;-38
2021/03/01 01:54:22;;;;;;;52.53;28.00;;;5.90;96.70;;;;;;5066505;28;20119;-40
2021/03/01 01:56:49;;;;;;;57.75;30.23;;;5.90;96.70;;;;;;5065824;28;20028;-40
2021/03/01 01:59:15;;;;;;;51.08;27.95;;;5.90;96.60;;;;;;5066391;28;20049;-40
2021/03/01 02:01:41;;;;;;;63.10;31.95;;;5.90;96.60;;;;;;5066401;28;20047;-39
2021/03/01 02:04:30;;;;;;;53.42;29.05;;;5.90;96.60;;;;;;5065795;28;20101;-38
2021/03/01 02:07:11;;;;;;;51.63;28.95;;;5.90;96.70;;;;;;5066017;28;20043;-38
2021/03/01 02:10:14;;;;;;;53.42;29.15;;;5.80;96.70;;;;;;5066120;28;20048;-40
2021/03/01 02:12:45;;;;;;;55.33;29.23;;;5.90;96.80;;;;;;5066127;28;20029;-40
2021/03/01 02:15:32;;;;;;;55.78;30.25;;;5.90;96.70;;;;;;5066336;28;20090;-39
2021/03/01 02:17:58;;;;;;;58.50;30.40;;;5.90;96.70;;;;;;5065841;28;20017;-39
2021/03/01 02:20:24;;;;;;;54.65;29.85;;;5.90;96.70;;;;;;5066553;28;20031;-40
2021/03/01 02:22:50;;;;;;;63.17;31.70;;;5.80;96.70;;;;;;5066007;28;20475;-38
2021/03/01 02:25:18;;;;;;;54.03;30.13;;;5.80;96.70;;;;;;5065531;28;20029;-39
2021/03/01 02:27:56;;;;;;;53.85;29.95;;;5.80;96.70;;;;;;5065456;28;20107;-38
2021/03/01 02:30:25;;;;;;;55.42;29.42;;;5.80;96.70;;;;;;5066276;28;20058;-39
2021/03/01 02:33:01;;;;;;;49.38;27.17;;;5.80;96.70;;;;;;5065362;28;20028;-39
2021/03/01 02:35:29;;;;;;;51.92;28.25;;;5.80;96.70;;;;;;5065882;28;20107;-39
2021/03/01 02:37:57;;;;;;;54.03;28.33;;;5.70;96.70;;;;;;5065714;28;20476;-39
2021/03/01 02:40:23;;;;;;;48.83;27.38;;;5.70;96.70;;;;;;5065505;28;20492;-39
2021/03/01 02:42:51;;;;;;;50.67;28.92;;;5.80;96.70;;;;;;5065674;28;20054;-39
2021/03/01 02:45:16;;;;;;;49.50;27.38;;;5.80;96.70;;;;;;5065088;28;20032;-40
2021/03/01 02:47:43;;;;;;;51.60;26.17;;;5.80;96.60;;;;;;5065554;28;20020;-39
2021/03/01 02:50:10;;;;;;;52.83;28.67;;;5.80;96.60;;;;;;5064982;28;20076;-39
2021/03/01 02:52:37;;;;;;;49.47;27.77;;;5.80;96.60;;;;;;5064989;28;20024;-39
2021/03/01 02:55:04;;;;;;;45.75;27.50;;;5.70;96.60;;;;;;5065505;28;20149;-38
2021/03/01 02:57:32;;;;;;;50.67;27.42;;;5.70;96.60;;;;;;5065665;28;20025;-39
2021/03/01 02:59:58;;;;;;;50.80;28.13;;;5.70;96.70;;;;;;5065033;28;20392;-37
2021/03/01 03:02:25;;;;;;;52.15;27.40;;;5.70;96.70;;;;;;5065339;28;20116;-39
2021/03/01 03:04:52;;;;;;;47.33;27.20;;;5.70;96.70;;;;;;5065246;28;20079;-39
2021/03/01 03:07:19;;;;;;;57.38;30.02;;;5.70;96.70;;;;;;5064925;28;20070;-40
2021/03/01 03:09:47;;;;;;;55.05;29.55;;;5.80;96.60;;;;;;5065109;28;20029;-40
2021/03/01 03:12:14;;;;;;;46.55;28.55;;;5.80;96.70;;;;;;5045259;28;20013;-41
2021/03/01 03:14:41;;;;;;;45.95;26.73;;;5.80;96.70;;;;;;5058686;28;20425;-42
2021/03/01 03:17:07;;;;;;;50.05;28.77;;;5.80;96.70;;;;;;5065044;28;20113;-40
2021/03/01 03:19:33;;;;;;;51.92;29.30;;;5.80;96.60;;;;;;5064652;28;20093;-40
2021/03/01 03:21:59;;;;;;;49.65;28.50;;;5.80;96.60;;;;;;5062904;28;20127;-39
2021/03/01 03:24:25;;;;;;;47.85;28.80;;;5.80;96.60;;;;;;5064555;28;20024;-39
2021/03/01 03:26:50;;;;;;;50.40;29.33;;;5.70;96.50;;;;;;5064202;28;20471;-39
2021/03/01 03:29:22;;;;;;;48.50;27.55;;;5.80;96.60;;;;;;5064376;28;20079;-39
2021/03/01 03:31:48;;;;;;;44.22;26.20;;;5.70;96.50;;;;;;5064857;28;20025;-39
2021/03/01 03:34:14;;;;;;;39.80;24.67;;;5.70;96.60;;;;;;5064071;28;20035;-40
2021/03/01 03:36:46;;;;;;;40.15;25.52;;;5.70;96.60;;;;;;5064939;28;20020;-39
2021/03/01 03:39:14;;;;;;;41.42;24.25;;;5.80;96.70;;;;;;5063740;28;20039;-38
2021/03/01 03:41:41;;;;;;;38.13;23.27;;;5.80;96.70;;;;;;5063427;28;20105;-39
2021/03/01 03:44:10;;;;;;;44.63;27.00;;;5.80;96.60;;;;;;5064286;28;20129;-40
2021/03/01 03:46:37;;;;;;;41.83;25.67;;;5.80;96.50;;;;;;5061437;28;20363;-39
2021/03/01 03:49:06;;;;;;;44.13;25.65;;;5.80;96.50;;;;;;5064734;28;20139;-41
2021/03/01 03:51:33;;;;;;;43.80;26.38;;;5.80;96.50;;;;;;5065287;28;20033;-39
2021/03/01 03:54:22;;;;;;;42.58;26.55;;;5.80;96.40;;;;;;5065033;28;20475;-39
2021/03/01 03:56:54;;;;;;;43.35;26.17;;;5.80;96.50;;;;;;5062808;28;20020;-39
2021/03/01 03:59:23;;;;;;;45.78;26.80;;;5.80;96.40;;;;;;5064588;28;20021;-39
2021/03/01 04:01:52;;;;;;;44.53;27.08;;;5.80;96.40;;;;;;5064275;28;20037;-39
2021/03/01 04:04:19;;;;;;;39.65;25.17;;;5.70;96.30;;;;;;5064208;28;20075;-40
2021/03/01 04:06:47;;;;;;;41.85;26.40;;;5.70;96.30;;;;;;5063761;28;20426;-42
2021/03/01 04:09:14;;;;;;;42.60;26.05;;;5.60;96.30;;;;;;5063729;28;20044;-39
2021/03/01 04:11:42;;;;;;;41.72;25.73;;;5.60;96.30;;;;;;5063687;28;20025;-39
2021/03/01 04:14:09;;;;;;;37.58;24.50;;;5.50;96.30;;;;;;5064436;28;20123;-40
2021/03/01 04:16:36;;;;;;;41.22;24.83;;;5.50;96.40;;;;;;5063852;28;20029;-38
2021/03/01 04:19:05;;;;;;;41.63;24.75;;;5.50;96.50;;;;;;5064065;28;20082;-40
2021/03/01 04:21:33;;;;;;;43.47;26.77;;;5.40;96.50;;;;;;5063648;28;20112;-41
2021/03/01 04:24:00;;;;;;;39.35;25.38;;;5.40;96.50;;;;;;5064305;28;20044;-41
2021/03/01 04:26:26;;;;;;;39.55;24.10;;;5.40;96.50;;;;;;5064077;28;20321;-39
2021/03/01 04:28:53;;;;;;;35.53;23.23;;;5.40;96.60;;;;;;5063985;28;20476;-39
2021/03/01 04:31:19;;;;;;;35.40;22.98;;;5.40;96.60;;;;;;5063885;28;20022;-39
2021/03/01 04:33:46;;;;;;;37.38;22.20;;;5.40;96.70;;;;;;5063820;28;20033;-41
2021/03/01 04:36:14;;;;;;;43.67;25.88;;;5.40;96.70;;;;;;5063818;28;20480;-39
2021/03/01 04:38:39;;;;;;;36.22;22.27;;;5.50;96.70;;;;;;5063582;28;20052;-39
2021/03/01 04:41:06;;;;;;;39.38;23.00;;;5.50;96.60;;;;;;5063836;28;20059;-38
2021/03/01 04:43:35;;;;;;;30.88;20.42;;;5.50;96.60;;;;;;5063870;28;20124;-42
2021/03/01 04:46:02;;;;;;;32.08;20.95;;;5.40;96.60;;;;;;5063885;28;20374;-38
2021/03/01 04:48:29;;;;;;;33.80;21.55;;;5.50;96.60;;;;;;5063675;28;20048;-40
2021/03/01 04:50:55;;;;;;;31.42;20.75;;;5.50;96.60;;;;;;5066879;28;20089;-40
2021/03/01 04:53:21;;;;;;;37.50;23.85;;;5.50;96.60;;;;;;5067031;28;20040;-38
2021/03/01 04:55:48;;;;;;;43.65;26.33;;;5.50;96.50;;;;;;5067954;28;20020;-40
2021/03/01 04:58:18;;;;;;;40.92;25.17;;;5.50;96.40;;;;;;5066545;28;20491;-41
2021/03/01 05:00:45;;;;;;;40.10;24.75;;;5.50;96.40;;;;;;5067006;28;20325;-40
2021/03/01 05:03:11;;;;;;;35.25;22.52;;;5.50;96.40;;;;;;5067652;28;20050;-40
2021/03/01 05:05:37;;;;;;;35.13;22.73;;;5.40;96.40;;;;;;5066898;28;20052;-39
2021/03/01 05:08:05;;;;;;;39.88;23.77;;;5.50;96.50;;;;;;5066816;28;20024;-40
2021/03/01 05:10:32;;;;;;;39.90;24.92;;;5.40;96.40;;;;;;5067494;28;20037;-40
2021/03/01 05:12:58;;;;;;;41.67;25.40;;;5.50;96.30;;;;;;5067547;28;20103;-42
2021/03/01 05:15:23;;;;;;;38.70;25.15;;;5.40;96.30;;;;;;5067073;28;20024;-40
2021/03/01 05:17:49;;;;;;;40.10;24.83;;;5.40;96.30;;;;;;5066824;28;20024;-41
2021/03/01 05:20:15;;;;;;;40.35;25.10;;;5.40;96.40;;;;;;5066335;28;20264;-39
2021/03/01 05:22:40;;;;;;;41.05;24.75;;;5.30;96.30;;;;;;5066838;28;20183;-38
2021/03/01 05:25:07;;;;;;;44.70;26.70;;;5.30;96.30;;;;;;5067424;28;20035;-40
2021/03/01 05:27:35;;;;;;;45.50;26.35;;;5.40;96.30;;;;;;5066129;28;20080;-39
2021/03/01 05:30:04;;;;;;;48.45;26.73;;;5.30;96.20;;;;;;5067182;28;20150;-39
2021/03/01 05:32:29;;;;;;;42.60;25.15;;;5.30;96.20;;;;;;5066750;28;20119;-40
2021/03/01 05:35:01;;;;;;;39.42;24.75;;;5.30;96.30;;;;;;5066343;28;20142;-39
2021/03/01 05:37:27;;;;;;;44.70;26.33;;;5.20;96.30;;;;;;5067547;28;20398;-39
2021/03/01 05:39:52;;;;;;;47.17;26.58;;;5.20;96.40;;;;;;5066337;28;20084;-39
2021/03/01 05:42:19;;;;;;;47.85;26.85;;;5.20;96.30;;;;;;5066269;28;20839;-39
2021/03/01 05:44:45;;;;;;;42.78;26.90;;;5.20;96.30;;;;;;5066398;28;20122;-38
2021/03/01 05:47:11;;;;;;;45.55;27.33;;;5.10;96.30;;;;;;5066735;28;20056;-39
2021/03/01 05:49:41;;;;;;;48.45;27.33;;;5.10;96.20;;;;;;5065687;28;20492;-40
2021/03/01 05:52:09;;;;;;;46.95;27.55;;;5.00;96.20;;;;;;5066845;28;20056;-39
2021/03/01 05:54:35;;;;;;;48.30;27.88;;;5.00;96.20;;;;;;5066027;28;20545;-40
2021/03/01 05:57:08;;;;;;;45.22;26.60;;;5.00;96.30;;;;;;5066919;28;20099;-41
2021/03/01 05:59:34;;;;;;;52.75;28.83;;;4.90;96.30;;;;;;5066282;28;20056;-40
2021/03/01 06:01:59;;;;;;;44.25;26.50;;;4.90;96.40;;;;;;5065614;28;20017;-40
2021/03/01 06:04:28;;;;;;;49.45;28.95;;;4.90;96.50;;;;;;5065823;28;20028;-39
2021/03/01 06:06:54;;;;;;;53.13;29.15;;;4.90;96.50;;;;;;5066834;28;20332;-40
2021/03/01 06:09:20;;;;;;;55.58;29.65;;;4.90;96.40;;;;;;5065890;28;20440;-40
2021/03/01 06:11:47;;;;;;;48.15;29.38;;;4.90;96.40;;;;;;5066427;28;20033;-39
2021/03/01 06:14:13;;;;;;;51.25;29.75;;;4.90;96.40;;;;;;5065903;28;20579;-38
2021/03/01 06:17:08;;;;;;;54.75;30.27;;;4.80;96.40;;;;;;5065643;28;20727;-38
2021/03/01 06:19:44;;;;;;;53.70;29.98;;;4.80;96.40;;;;;;5066406;28;20083;-40
2021/03/01 06:22:10;;;;;;;49.20;28.13;;;4.80;96.40;;;;;;5065911;28;20147;-41
2021/03/01 06:24:36;;;;;;;48.92;29.20;;;4.70;96.40;;;;;;5065449;28;20115;-40
2021/03/01 06:27:02;;;;;;;52.22;29.20;;;4.70;96.50;;;;;;5066297;28;20028;-40
2021/03/01 06:29:27;;;;;;;49.65;28.48;;;4.70;96.40;;;;;;5066628;28;20480;-38
2021/03/01 06:31:53;;;;;;;52.50;29.90;;;4.70;96.50;;;;;;5065300;28;20020;-41
2021/03/01 06:34:34;;;;;;;47.30;26.73;;;4.70;96.50;;;;;;5065904;28;20499;-43
2021/03/01 06:37:00;;;;;;;51.88;29.27;;;4.70;96.50;;;;;;5065774;28;20031;-41
2021/03/01 06:39:40;;;;;;;51.53;29.58;;;4.70;96.50;;;;;;5066063;28;20037;-39
2021/03/01 06:42:23;;;;;;;53.38;29.63;;;4.70;96.50;;;;;;5065373;28;20036;-40
2021/03/01 06:45:01;;;;;;;54.35;29.33;;;4.60;96.40;;;;;;5059040;28;20030;-40
2021/03/01 06:47:53;;;;;;;48.85;29.08;;;4.60;96.50;;;;;;5065523;28;20020;-40
2021/03/01 06:50:21;;;;;;;51.45;27.85;;;4.60;96.60;;;;;;5063341;28;20098;-40
2021/03/01 06:52:46;;;;;;;53.10;29.52;;;4.50;96.50;;;;;;5059329;28;20085;-40
2021/03/01 06:55:12;;;;;;;55.63;30.30;;;4.50;96.50;;;;;;5064205;28;20036;-40
2021/03/01 06:57:38;;;;;;;55.65;29.98;;;4.50;96.60;;;;;;5064290;28;20025;-39
2021/03/01 07:00:05;;;;;;;50.70;27.60;;;4.50;96.50;;;;;;5065376;28;20211;-38
2021/03/01 07:02:43;;;;;;;58.90;30.38;;;4.50;96.60;;;;;;5064652;28;20115;-42
2021/03/01 07:05:09;;;;;;;58.42;30.65;;;4.50;96.60;;;;;;5064282;28;20028;-39
2021/03/01 07:07:39;;;;;;;62.28;32.72;;;4.50;96.50;;;;;;5064672;28;20116;-40
2021/03/01 07:10:11;;;;;;;50.20;28.35;;;4.50;96.60;;;;;;5065385;28;20037;-39
2021/03/01 07:12:46;;;;;;;58.70;30.85;;;4.40;96.60;;;;;;5062984;28;20082;-39
2021/03/01 07:15:13;;;;;;;59.75;31.85;;;4.40;96.70;;;;;;5066375;28;20029;-40
2021/03/01 07:17:41;;;;;;;58.38;31.10;;;4.40;96.70;;;;;;5064987;28;20308;-40
2021/03/01 07:20:10;;;;;;;55.58;28.75;;;4.40;96.70;;;;;;5064575;28;20488;-40
2021/03/01 07:22:43;;;;;;;56.85;30.75;;;4.30;96.70;;;;;;5065395;28;20024;-40
2021/03/01 07:25:11;;;;;;;53.92;29.83;;;4.30;96.70;;;;;;5065680;28;20084;-40
2021/03/01 07:27:39;;;;;;;51.63;28.73;;;4.30;96.80;;;;;;5064802;28;20082;-39
2021/03/01 07:30:06;;;;;;;53.40;28.08;;;4.30;96.80;;;;;;5065993;28;20059;-39
2021/03/01 07:32:33;;;;;;;50.97;26.25;;;4.30;96.80;;;;;;5065533;28;20448;-38
2021/03/01 07:35:00;;;;;;;51.08;27.08;;;4.40;96.90;;;;;;5065716;28;20025;-40
2021/03/01 07:37:26;;;;;;;53.50;27.00;;;4.30;96.70;;;;;;5065175;28;20107;-39
2021/03/01 07:39:53;;;;;;;52.35;26.17;;;4.30;96.60;;;;;;5065519;28;20683;-40
2021/03/01 07:42:19;;;;;;;53.90;26.15;;;4.20;96.70;;;;;;5065397;28;20016;-38
2021/03/01 07:44:48;;;;;;;53.28;27.05;;;4.20;96.70;;;;;;5065383;28;20060;-38
2021/03/01 07:47:14;;;;;;;52.63;27.17;;;4.20;96.80;;;;;;5065112;28;20033;-39
2021/03/01 07:49:42;;;;;;;56.65;27.65;;;4.20;96.80;;;;;;5065056;28;20397;-39
2021/03/01 07:52:20;;;;;;;53.05;27.13;;;4.20;96.80;;;;;;5065279;28;20480;-40
2021/03/01 07:54:57;;;;;;;45.65;23.55;;;4.10;96.90;;;;;;5064002;28;20035;-39
2021/03/01 07:57:25;;;;;;;58.65;27.35;;;4.10;97.00;;;;;;5065208;28;20079;-40
2021/03/01 07:59:51;;;;;;;55.42;27.02;;;4.20;97.10;;;;;;5065169;28;20025;-40
2021/03/01 08:02:25;;;;;;;55.63;27.73;;;4.20;97.00;;;;;;5065373;28;20020;-39
2021/03/01 08:04:58;;;;;;;52.50;25.90;;;4.20;97.00;;;;;;5064912;28;20107;-40
2021/03/01 08:07:41;;;;;;;45.35;24.63;;;4.20;97.00;;;;;;5065885;28;20063;-40
2021/03/01 08:10:08;;;;;;;;;;;4.20;97.10;;;;;;5065542;28;20066;-44
2021/03/01 08:12:36;;;;;;;43.80;23.48;;;4.30;97.10;;;;;;5065711;28;19968;-41
2021/03/01 08:15:08;;;;;;;45.25;24.52;;;4.30;97.10;;;;;;5065414;28;20067;-38
2021/03/01 08:17:36;;;;;;;45.05;25.55;;;4.30;97.10;;;;;;5066108;28;20062;-43
2021/03/01 08:20:14;;;;;;;44.75;23.83;;;4.40;97.00;;;;;;5066027;28;20031;-39
2021/03/01 08:23:05;;;;;;;48.13;25.70;;;4.40;97.00;;;;;;5045658;28;20155;-39
2021/03/01 08:25:48;;;;;;;50.38;27.40;;;4.40;97.00;;;;;;5066143;28;20379;-39
2021/03/01 08:28:17;;;;;;;53.85;25.77;;;4.50;97.00;;;;;;5069756;28;20025;-41
2021/03/01 08:30:49;;;;;;;51.95;25.92;;;4.50;96.80;;;;;;5069065;28;20025;-40
2021/03/01 08:33:15;;;;;;;51.58;26.80;;;4.50;96.80;;;;;;5069780;28;20055;-38
2021/03/01 08:35:52;;;;;;;47.38;25.58;;;4.50;96.80;;;;;;5069383;28;20079;-38
2021/03/01 08:38:43;;;;;;;43.75;23.95;;;4.50;96.80;;;;;;5069558;28;20016;-40
2021/03/01 08:41:10;;;;;;;52.00;26.58;;;4.50;96.80;;;;;;5068521;28;20104;-40
2021/03/01 08:43:41;;;;;;;50.40;25.85;;;4.50;96.80;;;;;;5068531;28;20075;-38
2021/03/01 08:46:08;;;;;;;47.30;24.15;;;4.50;96.80;;;;;;5068800;28;20468;-38
2021/03/01 08:48:46;;;;;;;48.17;25.55;;;4.50;96.80;;;;;;5069303;28;20094;-36
2021/03/01 08:51:12;;;;;;;44.58;23.92;;;4.60;96.80;;;;;;5068661;28;20113;-39
2021/03/01 08:53:38;;;;;;;42.40;22.63;;;4.60;96.80;;;;;;5069408;28;20528;-38
2021/03/01 08:56:04;;;;;;;39.35;22.42;;;4.70;96.90;;;;;;5068578;28;20040;-39
2021/03/01 08:58:34;;;;;;;42.47;21.88;;;4.80;96.80;;;;;;5068546;28;20051;-40
2021/03/01 09:01:05;;;;;;;40.88;21.83;;;4.80;96.50;;;;;;5068959;28;20021;-39
2021/03/01 09:03:33;;;;;;;36.47;20.67;;;4.80;96.40;;;;;;5069023;28;20488;-40
2021/03/01 09:06:14;;;;;;;37.42;20.55;;;4.90;96.40;;;;;;5068565;28;20028;-39
2021/03/01 09:08:50;;;;;;;35.78;20.50;;;4.90;96.40;;;;;;5068382;28;20044;-39
2021/03/01 09:11:30;;;;;;;33.45;19.15;;;5.00;96.30;;;;;;5068504;28;20016;-40
2021/03/01 09:14:04;;;;;;;36.95;21.13;;;5.10;96.30;;;;;;5067590;28;20761;-40
2021/03/01 09:16:33;;;;;;;35.45;20.65;;;5.10;96.10;;;;;;5067875;28;20052;-41
2021/03/01 09:19:04;;;;;;;34.78;20.23;;;5.10;96.00;;;;;;5068609;28;20060;-40
2021/03/01 09:21:31;;;;;;;35.10;19.90;;;5.20;96.00;;;;;;5068121;28;20013;-40
2021/03/01 09:23:57;;;;;;;37.35;20.42;;;5.20;96.00;;;;;;5068205;28;20024;-40
2021/03/01 09:26:28;;;;;;;36.35;20.90;;;5.20;96.00;;;;;;5067994;28;20029;-41
2021/03/01 09:28:57;;;;;;;38.38;21.08;;;5.20;95.90;;;;;;5068070;28;20037;-40
2021/03/01 09:31:23;;;;;;;36.42;20.77;;;5.20;95.80;;;;;;5067405;28;20628;-41
2021/03/01 09:33:50;;;;;;;34.08;20.33;;;5.20;95.80;;;;;;5067871;28;20116;-40
2021/03/01 09:36:16;;;;;;;43.47;23.20;;;5.30;95.80;;;;;;5066606;28;20028;-40
2021/03/01 09:38:48;;;;;;;37.15;20.88;;;5.30;96.00;;;;;;5068208;28;20430;-40
2021/03/01 09:41:14;;;;;;;38.20;21.38;;;5.30;95.70;;;;;;5067063;28;20028;-41
2021/03/01 09:43:42;;;;;;;44.13;22.80;;;5.30;95.70;;;;;;5067580;28;20028;-43
2021/03/01 09:46:07;;;;;;;39.22;20.92;;;5.20;95.70;;;;;;5067706;28;20483;-38
2021/03/01 09:48:43;;;;;;;38.30;21.08;;;5.20;95.70;;;;;;5066670;28;20058;-40
2021/03/01 09:51:10;;;;;;;31.73;18.45;;;5.20;95.70;;;;;;5067843;28;20059;-39
2021/03/01 09:53:37;;;;;;;34.45;19.80;;;5.30;95.80;;;;;;5067304;28;20024;-40
2021/03/01 09:56:03;;;;;;;37.30;20.30;;;5.30;95.90;;;;;;5067430;28;20040;-36
2021/03/01 09:58:31;;;;;;;34.13;19.70;;;5.40;95.80;;;;;;5067595;28;20127;-40
2021/03/01 10:01:17;;;;;;;32.45;19.30;;;5.40;95.70;;;;;;5047566;28;20235;-40
2021/03/01 10:03:48;;;;;;;32.75;18.50;;;5.50;95.60;;;;;;5065237;28;20047;-40
2021/03/01 10:06:29;;;;;;;33.28;19.05;;;5.50;95.60;;;;;;5067402;28;20039;-36
2021/03/01 10:09:01;;;;;;;36.60;19.85;;;5.50;95.70;;;;;;5066783;28;20044;-40
2021/03/01 10:11:27;;;;;;;34.95;19.73;;;5.60;95.60;;;;;;5068136;28;20028;-40
2021/03/01 10:14:02;;;;;;;36.35;20.50;;;5.60;95.50;;;;;;5066854;28;20145;-40
2021/03/01 10:16:33;;;;;;;35.67;19.50;;;5.70;95.50;;;;;;5047615;28;20111;-40
2021/03/01 10:19:24;;;;;;;34.45;19.17;;;5.80;95.30;;;;;;5063671;28;20025;-41
2021/03/01 10:21:50;;;;;;;31.10;18.73;;;5.70;95.10;;;;;;5046534;28;20021;-39
2021/03/01 10:24:18;;;;;;;37.22;20.23;;;5.80;95.10;;;;;;5062476;28;20100;-40
2021/03/01 10:26:55;;;;;;;31.25;17.55;;;5.70;95.10;;;;;;5066581;28;20118;-41
2021/03/01 10:29:53;;;;;;;32.00;18.27;;;5.80;95.20;;;;;;5065627;28;20048;-39
2021/03/01 10:32:23;;;;;;;31.25;18.65;;;5.80;95.60;;;;;;5046058;28;20064;-40
2021/03/01 10:34:49;;;;;;;34.20;18.80;;;6.00;95.30;;;;;;5064390;28;20035;-40
2021/03/01 10:37:16;;;;;;;28.77;17.92;;;6.10;95.10;;;;;;5066260;28;20028;-39
2021/03/01 10:39:49;;;;;;;31.45;17.40;;;6.10;94.90;;;;;;5065840;28;20028;-40
2021/03/01 10:42:14;;;;;;;;;;;6.10;94.70;;;;;;5046541;28;20712;-45
2021/03/01 10:44:59;;;;;;;31.83;17.92;;;6.10;94.60;;;;;;5060334;28;19996;-40
2021/03/01 10:47:27;;;;;;;32.88;16.50;;;6.00;94.50;;;;;;5064967;28;20059;-39
2021/03/01 10:49:55;;;;;;;32.58;17.92;;;6.00;94.70;;;;;;5064929;28;20048;-39
2021/03/01 10:52:22;;;;;;;33.53;19.50;;;6.10;94.80;;;;;;5066161;28;20024;-40
2021/03/01 10:54:48;;;;;;;32.50;17.35;;;6.10;94.70;;;;;;5065379;28;20032;-40
2021/03/01 10:57:14;;;;;;;27.23;16.70;;;6.20;94.70;;;;;;5065895;28;20716;-38
2021/03/01 10:59:39;;;;;;;27.02;15.82;;;6.30;94.70;;;;;;5059440;28;20430;-40
2021/03/01 11:02:06;;;;;;;27.35;17.13;;;6.30;94.60;;;;;;5061615;28;20021;-39
2021/03/01 11:04:33;;;;;;;27.35;16.88;;;6.40;94.60;;;;;;5064119;28;20032;-38
2021/03/01 11:06:59;;;;;;;30.98;17.42;;;6.60;94.60;;;;;;5063102;28;20059;-39
2021/03/01 11:09:25;;;;;;;31.58;18.13;;;6.70;94.50;;;;;;5064776;28;20067;-37
2021/03/01 11:11:52;;;;;;;30.38;16.77;;;6.70;94.00;;;;;;5064365;28;20060;-40
2021/03/01 11:14:19;;;;;;;27.52;16.65;;;6.70;93.70;;;;;;5065091;28;20055;-40
2021/03/01 11:16:45;;;;;;;29.35;17.90;;;6.70;93.80;;;;;;5066164;28;20043;-39
2021/03/01 11:19:13;;;;;;;33.38;17.60;;;6.80;93.80;;;;;;5065939;28;20116;-39
2021/03/01 11:21:40;;;;;;;27.63;16.85;;;6.70;93.70;;;;;;5065633;28;20069;-39
2021/03/01 11:24:07;;;;;;;30.23;17.48;;;6.80;93.70;;;;;;5066342;28;20070;-40
2021/03/01 11:26:32;;;;;;;27.15;17.05;;;6.80;93.70;;;;;;5064629;28;20032;-41
2021/03/01 11:28:58;;;;;;;30.05;17.88;;;6.80;93.50;;;;;;5066187;28;20806;-38
2021/03/01 11:31:24;;;;;;;26.45;16.13;;;6.80;93.40;;;;;;5065793;28;20516;-38
2021/03/01 11:33:51;;;;;;;26.17;16.67;;;6.90;93.50;;;;;;5058526;28;20028;-38
2021/03/01 11:36:17;;;;;;;26.63;15.93;;;6.90;93.50;;;;;;5063213;28;20020;-40
2021/03/01 11:38:42;;;;;;;29.60;17.40;;;7.10;93.50;;;;;;5065479;28;20033;-41
2021/03/01 11:41:09;;;;;;;25.63;16.75;;;7.20;93.60;;;;;;5064016;28;20111;-41
2021/03/01 11:43:35;;;;;;;24.48;15.55;;;7.30;93.10;;;;;;5062285;28;20510;-41
2021/03/01 11:46:01;;;;;;;26.83;15.55;;;7.30;93.00;;;;;;5064669;28;20107;-38
2021/03/01 11:48:27;;;;;;;25.65;15.27;;;7.40;93.00;;;;;;5064940;28;20029;-41
2021/03/01 11:50:52;;;;;;;24.35;14.73;;;7.50;92.90;;;;;;5064057;28;20044;-40
2021/03/01 11:53:18;;;;;;;23.38;14.90;;;7.60;92.80;;;;;;5064384;28;20318;-38
2021/03/01 11:55:45;;;;;;;23.95;15.52;;;7.70;92.80;;;;;;5065237;28;20024;-42
2021/03/01 11:58:11;;;;;;;19.98;13.00;;;7.60;92.80;;;;;;5064642;28;20115;-39
2021/03/01 12:00:40;;;;;;;20.50;13.20;;;7.60;92.70;;;;;;5063587;28;20098;-40
2021/03/01 12:03:07;;;;;;;19.58;13.32;;;7.60;92.80;;;;;;5065086;28;20028;-40
2021/03/01 12:05:34;;;;;;;19.20;12.48;;;7.60;92.90;;;;;;5064986;28;20569;-43
2021/03/01 12:08:00;;;;;;;21.30;13.68;;;7.60;93.00;;;;;;5064317;28;20408;-43
2021/03/01 12:10:25;;;;;;;19.13;13.05;;;7.60;92.90;;;;;;5064766;28;20052;-39
2021/03/01 12:12:51;;;;;;;20.60;13.05;;;7.60;92.90;;;;;;5064583;28;20113;-39
2021/03/01 12:15:17;;;;;;;19.50;12.27;;;7.60;92.90;;;;;;5063893;28;20043;-36
2021/03/01 12:17:42;;;;;;;19.73;12.77;;;7.60;93.00;;;;;;5064715;28;20029;-40
2021/03/01 12:20:08;;;;;;;21.30;12.95;;;7.50;93.10;;;;;;5064601;28;20020;-41
2021/03/01 12:22:34;;;;;;;22.90;13.20;;;7.50;93.10;;;;;;5063776;28;20039;-40
2021/03/01 12:25:00;;;;;;;20.95;12.75;;;7.50;93.20;;;;;;5064853;28;20383;-40
2021/03/01 12:27:25;;;;;;;21.55;13.45;;;7.50;93.20;;;;;;5064853;28;20162;-41
2021/03/01 12:29:51;;;;;;;20.80;12.50;;;7.40;93.30;;;;;;5064438;28;20127;-39
2021/03/01 12:32:26;;;;;;;21.70;13.63;;;7.40;93.30;;;;;;5064457;28;20021;-41
2021/03/01 12:34:52;;;;;;;17.67;11.95;;;7.40;93.40;;;;;;5064666;28;20032;-40
2021/03/01 12:37:17;;;;;;;18.77;12.85;;;7.40;93.40;;;;;;5064263;28;20019;-42
2021/03/01 12:39:43;;;;;;;19.98;12.63;;;7.40;93.50;;;;;;5063810;28;20044;-37
2021/03/01 12:42:09;;;;;;;21.40;12.32;;;7.50;93.50;;;;;;5061081;28;20017;-45
2021/03/01 12:44:36;;;;;;;20.63;13.75;;;7.50;93.50;;;;;;5063354;28;20121;-39
2021/03/01 12:47:02;;;;;;;23.25;13.82;;;7.60;93.50;;;;;;5063788;28;20021;-39
2021/03/01 12:49:28;;;;;;;23.58;13.48;;;7.70;93.30;;;;;;5063497;28;20471;-40
2021/03/01 12:51:54;;;;;;;18.58;12.40;;;7.70;93.30;;;;;;5063644;28;20056;-40
2021/03/01 12:54:19;;;;;;;21.38;13.18;;;7.70;93.30;;;;;;5063409;28;20124;-39
2021/03/01 12:56:45;;;;;;;20.90;12.85;;;7.80;93.30;;;;;;5064492;28;20443;-41